Miami International, FL

3:31 AM EDT on April 21, 2015 (GMT -0400)
Opa Locka | | Change Station
CLOSE
Current Station
Airport
Location: Opa Locka,
Elevation: 10 ft
Nearby Weather Stations

Elev 10 ft 25.91 °N, 80.28 °W | Updated 38 minutes ago

Mostly Cloudy
Mostly Cloudy
76 °F
Feels Like 76 °F
N
5
Wind Variable Wind from SSW

Today
High -- | Low -- °F
--% Chance of Precip.
Yesterday
High -- | Low -- °F
Precip. -- in
6:52 AM 7:47 PM
Waxing Crescent, 9% visible
Pressure 29.92 in
Visibility 10.0 miles
Clouds Clear
Dew Point 72 °F
Humidity 87%
Rainfall 0.00 in
Snow Depth Not available.
UV 0 out of 12
Pollen 4.20 out of 12
Air Quality Not available.
Flu Activity Local Activity
METAR KOPF 210653Z AUTO 20004KT 10SM CLR 24/22 A2992 RMK AO2 SLP132 T02440222

More Conditions Fewer Conditions

Pressure 29.92 in
Visibility 10.0 miles
Clouds Clear
Dew Point 72 °F
Humidity 87%
Rainfall 0.00 in
Snow Depth Not available.
UV 0 out of 12
Pollen 4.20 out of 12
Air Quality Not available.
Flu Activity Local Activity
METAR KOPF 210653Z AUTO 20004KT 10SM CLR 24/22 A2992 RMK AO2 SLP132 T02440222

More Conditions Fewer Conditions

10-Day Weather Forecast

Almanac

Astronomy

Apr. 21, 2015 Rise Set
Actual Time
Civil Twilight
Nautical Twilight
Astronomical Twilight
Moon
Length of Visible Light
Length of Day
Tomorrow will be .
, % of the Moon is Illuminated

Today's Extremes

State Highs State Lows

Community

WunderPhotos

Upload Photos

1,815,324 photos uploaded!

WunderBlogs® & News

Nearby

Air Quality

  Air Quality AQ Index Pollutant
Not available.

Snow Depth

Station Depth Elevation

Earthquake Activity

City Distance Mag. Time & Date
Minimum magnitude displayed is 2.5.

Coastal Water Temperatures

Place Temperature

Stations

Nearby Weather Stations

Station Location Temp. Windchill Dew Point Humidity Wind Precip. Elev Updated Type